Time;durP1;ratioP1;P1;durP2;ratioP2;P2;SDS_P1;SDS_P2;PMS_P1;PMS_P2;Temp;Humidity;BMP_temperature;BMP_pressure;BME280_temperature;BME280_humidity;BME280_pressure;Samples;Min_cycle;Max_cycle;Signal;HPM_P1;HPM_P2
2022/07/30 00:01:36;;;;;;;13.85;4.55;;;;;;;16.40;62.54;101026.96;1686104;85;21254;-56
2022/07/30 00:04:42;;;;;;;8.03;5.15;;;;;;;16.38;62.74;101030.44;1686186;85;21203;-56
2022/07/30 00:07:49;;;;;;;7.08;4.70;;;;;;;16.35;62.95;101025.31;1686217;85;21250;-57
2022/07/30 00:10:55;;;;;;;5.33;4.12;;;;;;;16.34;63.18;101033.28;1686068;84;21241;-56
2022/07/30 00:14:01;;;;;;;19.02;5.15;;;;;;;16.34;63.34;101029.14;1686241;85;21299;-54
2022/07/30 00:17:10;;;;;;;10.15;4.78;;;;;;;16.36;63.53;101032.53;1686087;85;21282;-56
2022/07/30 00:20:18;;;;;;;8.83;4.40;;;;;;;16.37;63.66;101023.22;1686137;85;21258;-56
2022/07/30 00:23:27;;;;;;;7.92;4.28;;;;;;;16.38;63.67;101024.05;1686232;85;21394;-56
2022/07/30 00:26:33;;;;;;;7.08;4.70;;;;;;;16.37;63.70;101015.44;1686293;85;21226;-54
2022/07/30 00:29:39;;;;;;;8.53;4.08;;;;;;;16.37;63.78;101008.02;1665598;85;21250;-55
2022/07/30 00:32:46;;;;;;;8.18;4.12;;;;;;;16.36;63.90;101001.30;1686211;85;21254;-56
2022/07/30 00:35:51;;;;;;;7.65;4.15;;;;;;;16.33;63.88;100999.77;1686208;85;21218;-54
2022/07/30 00:38:58;;;;;;;5.65;4.15;;;;;;;16.26;63.83;100997.49;1683711;85;21226;-56
2022/07/30 00:42:09;;;;;;;7.08;4.33;;;;;;;16.23;64.02;100995.64;1669706;86;21287;-56
2022/07/30 00:45:09;;;;;;;9.57;4.00;;;;;;;16.23;64.14;100995.64;1661298;86;21244;-54
2022/07/30 00:48:16;;;;;;;5.97;4.20;;;;;;;16.21;64.25;100994.98;1661022;86;21353;-55
2022/07/30 00:51:23;;;;;;;6.67;4.55;;;;;;;16.20;64.35;100985.86;1661155;86;21212;-56
2022/07/30 00:54:34;;;;;;;8.75;4.62;;;;;;;16.19;64.40;100985.50;1661398;85;21366;-55
2022/07/30 00:57:41;;;;;;;7.72;4.22;;;;;;;16.14;64.32;100986.62;1645192;86;21232;-56
2022/07/30 01:00:49;;;;;;;5.15;3.87;;;;;;;16.11;64.35;100988.39;1661123;86;21292;-55
2022/07/30 01:03:56;;;;;;;10.85;4.67;;;;;;;16.08;64.44;100986.03;1661067;86;21232;-56
2022/07/30 01:06:56;;;;;;;10.40;5.00;;;;;;;16.04;64.55;100990.25;1660510;86;21224;-56
2022/07/30 01:09:51;;;;;;;7.55;4.33;;;;;;;16.03;64.72;100987.69;1661470;86;21268;-56
2022/07/30 01:13:00;;;;;;;7.50;4.60;;;;;;;16.04;64.90;100991.64;1660730;86;21244;-54
2022/07/30 01:16:07;;;;;;;9.28;4.15;;;;;;;16.06;65.03;100990.89;1644136;86;21237;-56
2022/07/30 01:23:31;;;;;;;10.82;4.45;;;;;;;16.12;65.19;100987.37;1661151;86;21269;-55
2022/07/30 01:26:40;;;;;;;7.92;4.17;;;;;;;16.12;65.24;100985.98;1661447;85;21276;-56
2022/07/30 01:29:46;;;;;;;6.50;4.28;;;;;;;16.13;65.36;100984.05;1645343;86;21280;-55
2022/07/30 01:32:53;;;;;;;9.83;4.72;;;;;;;16.12;65.35;100987.37;1637005;86;21415;-56
2022/07/30 01:36:00;;;;;;;8.05;4.62;;;;;;;16.09;65.31;100980.83;1664445;86;21232;-56
2022/07/30 01:39:06;;;;;;;8.90;4.67;;;;;;;16.07;65.36;100986.23;1660932;86;21300;-56
2022/07/30 01:42:13;;;;;;;8.00;4.92;;;;;;;16.04;65.44;100988.01;1676510;84;21222;-56
2022/07/30 01:45:19;;;;;;;8.50;4.53;;;;;;;16.04;65.54;100986.63;1678451;85;21615;-57
2022/07/30 01:48:27;;;;;;;8.03;4.80;;;;;;;16.01;65.60;100980.98;1678450;85;21242;-56
2022/07/30 01:51:34;;;;;;;8.88;4.25;;;;;;;16.02;65.68;100988.20;1662767;85;21321;-57
2022/07/30 01:54:42;;;;;;;9.13;4.70;;;;;;;16.04;65.77;100990.77;1678570;85;21337;-56
2022/07/30 01:57:47;;;;;;;7.55;5.00;;;;;;;16.03;65.82;100991.28;1678504;85;21330;-56
2022/07/30 02:00:57;;;;;;;7.65;4.25;;;;;;;16.04;65.89;100993.53;1678445;85;21195;-56
2022/07/30 02:04:05;;;;;;;9.05;4.65;;;;;;;16.01;65.81;100992.03;1690554;83;21232;-56
2022/07/30 02:07:22;;;;;;;6.80;4.50;;;;;;;15.99;65.90;100996.02;1712500;84;21295;-56
2022/07/30 02:10:39;;;;;;;8.70;4.12;;;;;;;15.98;66.01;100992.39;1660114;86;21235;-57
2022/07/30 02:13:56;;;;;;;9.30;4.50;;;;;;;15.98;66.11;100990.19;1644324;86;21244;-55
2022/07/30 02:17:03;;;;;;;7.92;4.33;;;;;;;15.99;66.23;100995.51;1642497;87;21262;-56
2022/07/30 02:20:12;;;;;;;6.00;4.47;;;;;;;16.01;66.34;100990.65;1647344;86;21229;-56
2022/07/30 02:23:23;;;;;;;10.40;5.20;;;;;;;16.03;66.33;100987.14;1627523;88;21373;-56
2022/07/30 02:26:32;;;;;;;16.10;10.78;;;;;;;16.03;66.32;100984.38;1655536;86;21224;-56
2022/07/30 02:29:41;;;;;;;6.95;5.70;;;;;;;16.03;66.29;100984.93;1643880;87;21273;-56
2022/07/30 02:32:49;;;;;;;9.80;5.10;;;;;;;16.01;66.32;100980.98;1649908;86;21255;-56
2022/07/30 02:35:56;;;;;;;6.22;4.25;;;;;;;16.00;66.31;100982.02;1631949;88;21224;-55
2022/07/30 02:39:04;;;;;;;7.08;4.65;;;;;;;16.01;66.39;100990.65;1649299;86;21678;-56
2022/07/30 02:42:09;;;;;;;10.32;4.85;;;;;;;16.03;66.46;100993.22;1637945;85;21288;-55
2022/07/30 02:45:19;;;;;;;9.13;4.87;;;;;;;16.02;66.50;100989.59;1656962;86;21236;-56
2022/07/30 02:48:29;;;;;;;6.30;4.45;;;;;;;16.02;66.49;100985.45;1656466;86;21247;-56
2022/07/30 02:51:37;;;;;;;9.53;4.75;;;;;;;16.02;66.55;100990.97;1656579;86;21227;-56
2022/07/30 02:54:42;;;;;;;8.95;4.85;;;;;;;16.03;66.62;100992.66;1634477;87;21300;-55
2022/07/30 02:57:49;;;;;;;8.35;4.47;;;;;;;16.06;66.70;100996.41;1633516;88;21576;-55
2022/07/30 03:00:56;;;;;;;6.78;4.28;;;;;;;16.08;66.76;100999.84;1633510;88;21288;-56
2022/07/30 03:04:04;;;;;;;6.53;4.30;;;;;;;16.10;66.81;101001.89;1633553;88;21264;-55
2022/07/30 03:07:12;;;;;;;8.45;4.90;;;;;;;16.12;66.79;101008.09;1613461;87;21247;-56
2022/07/30 03:10:19;;;;;;;7.37;4.45;;;;;;;16.14;66.79;101007.34;1633523;88;21368;-54
2022/07/30 03:13:24;;;;;;;8.63;4.95;;;;;;;16.15;66.71;101008.20;1633540;88;21247;-55
2022/07/30 03:16:31;;;;;;;10.03;4.15;;;;;;;16.18;66.72;101010.57;1633747;88;21224;-56
2022/07/30 03:19:39;;;;;;;6.85;4.17;;;;;;;16.24;66.85;101011.16;1633516;88;21607;-56
2022/07/30 03:22:50;;;;;;;6.35;4.45;;;;;;;16.30;66.93;101020.03;1633472;88;21255;-56
2022/07/30 03:26:02;;;;;;;8.10;4.10;;;;;;;16.32;66.86;101017.42;1633578;88;21227;-55
2022/07/30 03:29:09;;;;;;;10.15;3.98;;;;;;;16.36;66.87;101015.95;1633555;88;21312;-56
2022/07/30 03:32:16;;;;;;;8.83;4.72;;;;;;;16.41;67.02;101018.98;1633482;87;21258;-56
2022/07/30 03:35:25;;;;;;;8.28;4.08;;;;;;;16.48;67.17;101009.41;1633616;88;21232;-56
2022/07/30 03:38:32;;;;;;;6.40;4.33;;;;;;;16.58;67.32;101011.33;1633594;88;21295;-55
2022/07/30 03:41:40;;;;;;;9.88;4.50;;;;;;;16.67;67.35;101010.11;1633553;88;21292;-54
2022/07/30 03:44:51;;;;;;;5.65;4.25;;;;;;;16.78;67.46;101012.33;1603811;88;21803;-56
2022/07/30 03:47:57;;;;;;;8.53;4.42;;;;;;;16.90;67.59;101017.66;1631455;87;21309;-55
2022/07/30 03:51:05;;;;;;;7.33;3.75;;;;;;;17.01;67.64;101023.15;1630908;87;21216;-55
2022/07/30 03:54:12;;;;;;;9.65;4.33;;;;;;;17.11;67.66;101020.89;1631566;86;21200;-55
2022/07/30 03:57:24;;;;;;;8.38;4.05;;;;;;;17.21;67.68;101025.51;1605882;86;21266;-55
2022/07/30 04:00:32;;;;;;;4.85;3.47;;;;;;;17.31;67.71;101023.24;1633140;86;21292;-56
2022/07/30 04:03:40;;;;;;;8.43;3.70;;;;;;;17.38;67.71;101027.75;1632572;86;21264;-56
2022/07/30 04:06:47;;;;;;;10.98;4.00;;;;;;;17.45;67.72;101020.91;1637331;86;21260;-55
2022/07/30 04:09:54;;;;;;;5.85;3.83;;;;;;;17.54;67.71;101011.36;1646715;86;21220;-56
2022/07/30 04:13:03;;;;;;;6.10;3.50;;;;;;;17.62;67.76;101019.49;1646541;86;21268;-56
2022/07/30 04:16:27;;;;;;;6.37;3.90;;;;;;;17.71;67.80;101023.27;1652169;86;21232;-56
2022/07/30 04:19:43;;;;;;;8.98;4.30;;;;;;;17.83;67.88;101029.08;1609745;87;21229;-57
2022/07/30 04:22:50;;;;;;;6.87;4.65;;;;;;;17.97;67.95;101025.81;1659685;86;21792;-57
2022/07/30 04:25:56;;;;;;;9.45;3.87;;;;;;;18.10;68.00;101028.62;1645328;86;21351;-57
2022/07/30 04:29:04;;;;;;;6.80;4.00;;;;;;;18.22;68.03;101031.96;1630934;86;21237;-56
2022/07/30 04:32:11;;;;;;;5.47;3.65;;;;;;;18.36;68.05;101029.53;1633041;86;21784;-56
2022/07/30 04:35:20;;;;;;;7.20;3.20;;;;;;;18.51;68.08;101026.61;1629185;88;21345;-57
2022/07/30 04:38:32;;;;;;;7.15;3.27;;;;;;;18.65;68.10;101034.73;1630862;86;21260;-57
2022/07/30 04:41:38;;;;;;;9.38;3.58;;;;;;;18.80;68.14;101035.92;1644761;86;21895;-57
2022/07/30 04:44:48;;;;;;;6.17;3.22;;;;;;;18.95;68.13;101033.24;1641714;86;21281;-55
2022/07/30 04:47:57;;;;;;;8.55;3.42;;;;;;;19.09;68.16;101034.94;1651638;86;21311;-55
2022/07/30 04:51:09;;;;;;;;;;;;;;;19.23;68.16;101033.02;1653718;86;21228;-55
2022/07/30 04:54:18;;;;;;;5.08;3.17;;;;;;;19.36;68.13;101037.72;1657492;84;20239;-55
2022/07/30 04:57:24;;;;;;;6.45;3.12;;;;;;;19.49;68.13;101043.25;1664879;85;21343;-55
2022/07/30 05:00:32;;;;;;;5.25;2.62;;;;;;;19.61;68.12;101042.88;1667253;84;21267;-55
2022/07/30 05:03:40;;;;;;;6.25;2.70;;;;;;;19.73;68.11;101035.55;1648529;86;21223;-55
2022/07/30 05:06:48;;;;;;;6.28;2.75;;;;;;;19.85;68.03;101040.20;1664412;86;21290;-55
2022/07/30 05:09:56;;;;;;;6.85;2.95;;;;;;;19.97;67.96;101041.24;1663096;86;21258;-57
2022/07/30 05:13:03;;;;;;;5.15;2.60;;;;;;;20.09;67.88;101031.67;1664286;86;21727;-55
2022/07/30 05:16:13;;;;;;;4.10;2.80;;;;;;;20.18;67.85;101027.06;1664041;86;21259;-56
2022/07/30 05:19:20;;;;;;;4.30;2.52;;;;;;;20.28;67.79;101032.97;1644734;86;21184;-54
2022/07/30 05:22:29;;;;;;;5.20;2.70;;;;;;;20.40;67.77;101031.73;1663773;86;21765;-56
2022/07/30 05:25:38;;;;;;;7.60;2.47;;;;;;;20.50;67.75;101034.31;1664000;86;21271;-55
2022/07/30 05:28:49;;;;;;;4.00;2.50;;;;;;;20.60;67.70;101035.22;1663833;86;21416;-55
2022/07/30 05:31:58;;;;;;;6.70;2.80;;;;;;;20.69;67.66;101033.89;1663423;86;21235;-56
2022/07/30 05:35:05;;;;;;;5.17;2.50;;;;;;;20.78;67.64;101028.34;1668257;85;21861;-55
2022/07/30 05:38:12;;;;;;;7.35;3.10;;;;;;;20.88;67.62;101029.23;1669701;86;21297;-56
2022/07/30 05:41:22;;;;;;;9.30;2.83;;;;;;;20.97;67.55;101031.53;1671525;85;21312;-56
2022/07/30 05:44:40;;;;;;;4.33;2.27;;;;;;;21.08;67.53;101029.92;1630669;86;21229;-54
2022/07/30 05:47:48;;;;;;;6.25;2.25;;;;;;;21.20;67.49;101031.73;1605732;88;21313;-55
2022/07/30 05:50:55;;;;;;;6.78;2.67;;;;;;;21.32;67.43;101029.05;1603229;89;21298;-55
2022/07/30 05:54:03;;;;;;;7.12;2.60;;;;;;;21.44;67.31;101035.02;1602132;89;21775;-54
2022/07/30 05:57:28;;;;;;;4.60;2.40;;;;;;;21.55;67.27;101034.25;1623226;88;21295;-56
2022/07/30 06:00:34;;;;;;;4.75;2.40;;;;;;;21.69;67.23;101031.62;1632484;86;21246;-56
2022/07/30 06:03:44;;;;;;;5.87;2.42;;;;;;;21.80;67.21;101023.91;1613745;87;21553;-56
2022/07/30 06:06:54;;;;;;;4.90;2.50;;;;;;;21.94;67.18;101020.42;1629985;88;21267;-57
2022/07/30 06:10:03;;;;;;;100.90;24.95;;;;;;;22.08;67.16;101010.79;1629029;86;21274;-57
2022/07/30 06:13:20;;;;;;;7.37;3.30;;;;;;;22.19;67.09;101012.25;1616613;88;21239;-55
2022/07/30 06:16:27;;;;;;;5.75;2.35;;;;;;;22.32;66.98;101020.10;1628718;87;21219;-55
2022/07/30 06:19:39;;;;;;;18.75;6.35;;;;;;;22.43;66.82;101020.69;1637318;87;21234;-56
2022/07/30 06:22:49;;;;;;;25.88;7.90;;;;;;;22.51;66.69;101019.81;1602724;89;21772;-56
2022/07/30 06:26:16;;;;;;;7.90;3.42;;;;;;;22.63;66.59;101021.29;1601216;89;21757;-56
2022/07/30 06:29:24;;;;;;;14.38;4.58;;;;;;;22.74;66.53;101023.25;1608323;89;21272;-56
2022/07/30 06:32:31;;;;;;;5.55;2.50;;;;;;;22.83;66.48;101021.27;1637943;85;21587;-56
2022/07/30 06:35:38;;;;;;;8.88;2.55;;;;;;;22.92;66.35;101018.42;1648225;86;21755;-57
2022/07/30 06:38:48;;;;;;;16.95;3.58;;;;;;;22.99;66.20;101016.91;1661602;86;21273;-57
2022/07/30 06:41:57;;;;;;;15.28;3.37;;;;;;;23.07;66.07;101015.98;1646259;86;21237;-57
2022/07/30 06:45:21;;;;;;;38.80;9.45;;;;;;;23.14;65.87;101010.28;1649716;86;21221;-57
2022/07/30 06:48:31;;;;;;;15.08;4.05;;;;;;;23.20;65.71;101005.98;1637374;86;21286;-57
2022/07/30 06:51:40;;;;;;;4.72;2.20;;;;;;;23.29;65.67;101005.94;1647615;86;21302;-57
2022/07/30 06:54:48;;;;;;;4.60;2.10;;;;;;;23.38;65.58;101012.88;1648296;86;21238;-55
2022/07/30 06:58:05;;;;;;;10.35;2.58;;;;;;;23.49;65.42;101009.22;1628266;86;21290;-56
2022/07/30 07:01:27;;;;;;;6.10;2.67;;;;;;;23.56;65.32;101005.73;1583312;86;21300;-56
2022/07/30 07:04:35;;;;;;;6.22;2.25;;;;;;;23.65;65.16;101011.80;1629175;87;21271;-57
2022/07/30 07:07:43;;;;;;;6.47;2.72;;;;;;;23.73;65.03;100998.84;1629365;87;21453;-57
2022/07/30 07:10:54;;;;;;;2.25;1.77;;;;;;;23.81;64.95;101001.80;1635207;87;21272;-57
2022/07/30 07:14:03;;;;;;;8.08;2.40;;;;;;;23.89;64.79;100995.81;1629914;86;21295;-56
2022/07/30 07:17:10;;;;;;;6.08;2.27;;;;;;;24.00;64.70;101007.01;1643408;86;21330;-55
2022/07/30 07:20:23;;;;;;;12.40;3.47;;;;;;;24.09;64.60;101006.91;1646187;86;21260;-55
2022/07/30 07:23:31;;;;;;;11.90;2.60;;;;;;;24.17;64.40;101010.71;1627048;87;21224;-55
2022/07/30 07:26:58;;;;;;;4.47;2.20;;;;;;;24.24;64.30;101003.03;1610509;88;21802;-55
2022/07/30 07:30:04;;;;;;;4.30;2.60;;;;;;;24.35;64.18;101000.72;1604044;88;21849;-56
2022/07/30 07:33:11;;;;;;;4.40;2.10;;;;;;;24.44;64.03;101003.41;1634333;86;21231;-55
2022/07/30 07:36:19;;;;;;;6.35;2.60;;;;;;;24.50;63.90;101000.13;1620788;87;21232;-56
2022/07/30 07:39:25;;;;;;;6.22;2.20;;;;;;;24.59;63.83;100994.44;1633842;87;21768;-57
2022/07/30 07:42:32;;;;;;;4.65;2.50;;;;;;;24.68;63.68;100999.95;1632210;87;21254;-57
2022/07/30 07:45:41;;;;;;;6.20;2.50;;;;;;;24.78;63.52;100996.77;1632973;87;21755;-57
2022/07/30 07:48:51;;;;;;;10.15;2.45;;;;;;;24.86;63.41;100990.74;1665251;84;21310;-56
2022/07/30 07:52:03;;;;;;;5.70;2.15;;;;;;;24.90;63.16;100996.15;1712841;83;21220;-56
2022/07/30 07:55:11;;;;;;;9.58;3.10;;;;;;;24.93;63.02;100992.84;1704657;83;21222;-55
2022/07/30 07:58:21;;;;;;;12.30;3.70;;;;;;;25.01;63.01;101003.62;1648274;86;21308;-56
2022/07/30 08:01:29;;;;;;;11.97;3.62;;;;;;;25.14;62.94;100990.34;1690911;85;21290;-56
2022/07/30 08:04:48;;;;;;;5.60;3.08;;;;;;;25.29;62.79;100989.20;1649616;85;21260;-56
2022/07/30 08:08:14;;;;;;;5.28;2.80;;;;;;;25.40;62.69;100991.08;1655442;86;21260;-57
2022/07/30 08:11:42;;;;;;;7.97;2.92;;;;;;;25.49;62.54;100989.52;1655345;86;21567;-56
2022/07/30 08:15:08;;;;;;;9.08;3.45;;;;;;;25.58;62.35;100987.41;1659799;85;21733;-55
2022/07/30 08:18:19;;;;;;;9.53;3.30;;;;;;;25.70;62.18;100972.73;1674115;84;21260;-57
2022/07/30 08:21:41;;;;;;;5.75;2.90;;;;;;;25.78;62.00;100968.03;1678232;85;21260;-55
2022/07/30 08:24:50;;;;;;;8.48;3.60;;;;;;;25.97;61.85;100979.80;1678066;85;21766;-54
2022/07/30 08:28:01;;;;;;;4.58;2.40;;;;;;;26.13;61.70;100968.50;1678978;85;21386;-55
2022/07/30 08:31:05;;;;;;;7.53;3.58;;;;;;;26.29;61.40;100963.34;1678021;85;21777;-56
2022/07/30 08:34:12;;;;;;;5.10;2.60;;;;;;;26.30;61.08;100965.06;1699224;83;21212;-56
2022/07/30 08:37:21;;;;;;;6.03;3.02;;;;;;;26.27;60.78;100964.16;1727281;83;21787;-56
2022/07/30 08:40:28;;;;;;;6.35;2.90;;;;;;;26.22;60.65;100966.08;1701473;83;21763;-55
2022/07/30 08:43:32;;;;;;;4.30;2.60;;;;;;;26.09;60.45;100960.33;1678921;83;21272;-56
2022/07/30 08:46:39;;;;;;;8.25;2.80;;;;;;;26.05;60.38;100963.34;1666868;85;21690;-56
2022/07/30 08:49:54;;;;;;;13.93;2.80;;;;;;;26.10;60.34;100958.38;1655873;85;21699;-54
2022/07/30 08:53:07;;;;;;;5.30;2.77;;;;;;;26.19;60.25;100961.00;1665593;83;21186;-55
2022/07/30 08:56:13;;;;;;;5.35;2.83;;;;;;;26.30;60.19;100951.02;1675775;82;22151;-55
2022/07/30 08:59:24;;;;;;;6.33;2.98;;;;;;;26.47;60.09;100935.44;1679900;83;21871;-54
2022/07/30 09:02:31;;;;;;;3.80;2.65;;;;;;;26.67;60.00;100947.46;1656794;86;21799;-55
2022/07/30 09:05:37;;;;;;;7.42;2.80;;;;;;;26.79;59.70;100948.97;1689596;85;21274;-55
2022/07/30 09:08:44;;;;;;;8.68;2.50;;;;;;;26.88;59.39;100946.52;1697921;84;21213;-55
2022/07/30 09:11:50;;;;;;;7.10;2.55;;;;;;;26.98;59.18;100946.03;1682358;84;21244;-56
2022/07/30 09:15:18;;;;;;;5.83;2.80;;;;;;;27.09;58.94;100937.95;1616063;87;21254;-55
2022/07/30 09:18:45;;;;;;;5.25;2.58;;;;;;;27.20;58.75;100941.13;1686973;84;21335;-55
2022/07/30 09:22:05;;;;;;;8.68;3.08;;;;;;;27.22;58.49;100933.82;1683713;85;21220;-56
2022/07/30 09:25:15;;;;;;;6.90;2.75;;;;;;;27.20;58.21;100934.09;1652294;85;21275;-55
2022/07/30 09:28:40;;;;;;;4.30;2.83;;;;;;;27.29;58.14;100929.67;1711362;83;21275;-56
2022/07/30 09:32:10;;;;;;;5.37;2.75;;;;;;;27.63;58.18;100932.95;1720567;83;21267;-56
2022/07/30 09:35:33;;;;;;;6.55;2.90;;;;;;;27.81;57.68;100930.48;1719671;83;21216;-56
2022/07/30 09:39:00;;;;;;;3.67;2.60;;;;;;;27.68;57.20;100929.61;1727526;83;21346;-56
2022/07/30 09:42:13;;;;;;;6.97;2.95;;;;;;;27.60;57.09;100923.10;1725756;83;21235;-54
2022/07/30 09:45:22;;;;;;;5.12;3.33;;;;;;;27.56;56.96;100923.34;1706213;83;21287;-57
2022/07/30 09:48:35;;;;;;;4.60;3.30;;;;;;;27.62;56.94;100923.66;1695289;83;21270;-55
2022/07/30 09:51:51;;;;;;;4.05;2.72;;;;;;;27.71;56.75;100923.43;1670796;85;21233;-55
2022/07/30 09:55:02;;;;;;;4.33;3.20;;;;;;;27.73;56.54;100925.39;1629246;88;21273;-55
2022/07/30 09:58:12;;;;;;;8.53;3.30;;;;;;;27.73;56.31;100927.38;1692204;84;21215;-57
2022/07/30 10:01:20;;;;;;;8.08;2.95;;;;;;;27.76;56.17;100919.23;1668414;85;21209;-56
2022/07/30 10:04:47;;;;;;;4.47;3.10;;;;;;;27.73;56.09;100921.16;1662493;86;21255;-57
2022/07/30 10:08:02;;;;;;;5.15;3.00;;;;;;;27.88;56.00;100922.38;1662804;85;21595;-56
2022/07/30 10:11:11;;;;;;;3.90;3.05;;;;;;;28.01;55.87;100917.63;1664241;84;21694;-56
2022/07/30 10:14:21;;;;;;;6.25;3.33;;;;;;;28.06;55.51;100919.91;1665238;84;21418;-56
2022/07/30 10:17:29;;;;;;;5.97;2.80;;;;;;;28.09;55.36;100919.91;1665135;84;21225;-57
2022/07/30 10:20:42;;;;;;;5.87;2.80;;;;;;;28.14;55.09;100919.38;1663888;86;21202;-56
2022/07/30 10:24:05;;;;;;;2.87;2.42;;;;;;;28.15;54.86;100918.23;1657251;86;21218;-57
2022/07/30 10:27:29;;;;;;;4.55;2.45;;;;;;;28.21;54.68;100914.30;1664057;85;21375;-57
2022/07/30 10:30:45;;;;;;;10.10;3.00;;;;;;;28.36;54.42;100910.67;1664342;85;21230;-56
2022/07/30 10:33:55;;;;;;;6.20;2.75;;;;;;;28.46;54.15;100907.87;1663019;86;21760;-55
2022/07/30 10:37:07;;;;;;;4.10;2.92;;;;;;;28.60;54.03;100918.89;1667284;85;21225;-56
2022/07/30 10:40:20;;;;;;;8.25;3.10;;;;;;;28.71;53.79;100919.17;1671964;85;21191;-56
2022/07/30 10:43:42;;;;;;;4.90;3.00;;;;;;;28.63;53.51;100915.51;1665046;84;21285;-56
2022/07/30 10:47:12;;;;;;;9.17;3.07;;;;;;;28.53;53.14;100919.17;1663948;85;21210;-56
2022/07/30 10:50:28;;;;;;;6.47;3.25;;;;;;;28.41;53.07;100908.72;1659902;83;21229;-56
2022/07/30 10:53:48;;;;;;;6.15;3.08;;;;;;;28.71;52.78;100910.17;1640327;86;21240;-56
2022/07/30 10:57:12;;;;;;;3.27;2.42;;;;;;;28.71;52.78;100910.17;1654482;86;21238;-56
2022/07/30 11:00:22;;;;;;;4.75;2.80;;;;;;;28.72;52.54;100902.53;1656962;85;21725;-57
2022/07/30 11:03:34;;;;;;;3.10;2.37;;;;;;;28.71;52.35;100908.75;1654365;86;21917;-57
2022/07/30 11:06:45;;;;;;;6.95;2.60;;;;;;;28.52;52.18;100905.36;1658580;85;21234;-55
2022/07/30 11:09:52;;;;;;;5.30;2.80;;;;;;;28.28;51.39;100898.54;1656524;85;21681;-56
2022/07/30 11:13:00;;;;;;;4.42;2.62;;;;;;;28.28;51.39;100898.54;1662849;83;21259;-56
2022/07/30 11:16:10;;;;;;;4.08;2.50;;;;;;;28.59;51.48;100892.67;1656700;86;21219;-56
2022/07/30 11:19:27;;;;;;;4.47;2.40;;;;;;;28.59;51.48;100892.67;1656107;86;21209;-56
2022/07/30 11:22:39;;;;;;;7.42;2.83;;;;;;;28.82;51.45;100917.48;1654872;86;21230;-56
2022/07/30 11:25:49;;;;;;;4.67;2.70;;;;;;;28.98;51.19;100911.27;1653845;86;21322;-57
2022/07/30 11:28:57;;;;;;;6.03;2.58;;;;;;;29.16;51.03;100914.36;1656058;86;21244;-56
2022/07/30 11:32:09;;;;;;;4.87;2.30;;;;;;;29.32;50.73;100905.28;1657298;85;21215;-57
2022/07/30 11:35:24;;;;;;;4.55;2.35;;;;;;;29.45;50.39;100908.91;1657370;85;21242;-56
2022/07/30 11:38:34;;;;;;;3.27;2.12;;;;;;;29.56;50.19;100900.69;1656284;85;21301;-56
2022/07/30 11:41:42;;;;;;;6.62;2.27;;;;;;;29.56;49.65;100904.92;1656678;85;21250;-56
2022/07/30 11:44:49;;;;;;;5.62;2.30;;;;;;;29.19;49.20;100900.27;1656790;85;21210;-55
2022/07/30 11:48:01;;;;;;;2.92;2.20;;;;;;;29.12;49.25;100897.73;1657089;85;21743;-55
2022/07/30 11:51:10;;;;;;;4.90;2.00;;;;;;;29.15;49.09;100899.98;1657214;85;21376;-55
2022/07/30 11:54:19;;;;;;;5.37;1.90;;;;;;;29.05;48.70;100895.73;1656739;86;21274;-57
2022/07/30 11:57:26;;;;;;;5.42;2.10;;;;;;;29.05;48.39;100889.27;1657154;85;21892;-55
2022/07/30 12:00:50;;;;;;;5.03;2.20;;;;;;;29.08;48.21;100898.59;1656732;85;21327;-55
2022/07/30 12:03:58;;;;;;;4.10;2.00;;;;;;;29.10;48.13;100887.30;1657873;85;21785;-56
2022/07/30 12:07:06;;;;;;;5.22;1.98;;;;;;;29.18;48.03;100892.36;1657684;85;21256;-55
2022/07/30 12:10:25;;;;;;;3.00;1.52;;;;;;;29.26;47.72;100887.28;1656648;85;21284;-55
2022/07/30 12:13:33;;;;;;;3.27;2.10;;;;;;;29.26;47.44;100894.33;1658152;85;21225;-56
2022/07/30 12:16:44;;;;;;;5.53;1.85;;;;;;;29.14;47.02;100895.45;1667877;84;21263;-57
2022/07/30 12:19:53;;;;;;;5.65;2.12;;;;;;;28.85;46.78;100888.73;1656890;85;21345;-56
2022/07/30 12:23:05;;;;;;;6.92;2.42;;;;;;;28.68;46.72;100885.92;1657765;85;21260;-54
2022/07/30 12:26:11;;;;;;;3.47;2.02;;;;;;;28.60;46.98;100885.08;1655887;86;21189;-56
2022/07/30 12:29:18;;;;;;;4.62;2.10;;;;;;;28.60;46.98;100885.08;1667109;86;22051;-54
2022/07/30 12:32:26;;;;;;;3.05;1.85;;;;;;;28.38;46.29;100883.92;1693251;85;21238;-56
2022/07/30 12:35:57;;;;;;;5.15;2.00;;;;;;;28.38;46.29;100883.92;1693701;85;21687;-55
2022/07/30 12:39:05;;;;;;;6.95;1.90;;;;;;;28.27;46.08;100887.01;1667072;86;21263;-56
2022/07/30 12:42:19;;;;;;;5.17;1.85;;;;;;;28.20;46.09;100889.23;1642729;85;21240;-56
2022/07/30 12:45:40;;;;;;;5.35;2.00;;;;;;;28.20;45.95;100886.42;1628661;86;21240;-57
2022/07/30 12:49:04;;;;;;;6.53;1.82;;;;;;;28.20;45.87;100883.60;1657011;85;21850;-58
2022/07/30 12:52:12;;;;;;;5.35;2.00;;;;;;;28.27;45.74;100885.59;1659576;84;21267;-57
2022/07/30 12:55:20;;;;;;;4.08;1.52;;;;;;;28.31;45.51;100876.86;1606486;86;21296;-57
2022/07/30 12:58:31;;;;;;;3.40;1.47;;;;;;;28.33;45.24;100877.42;1619756;86;21241;-57
2022/07/30 13:01:55;;;;;;;5.15;1.50;;;;;;;28.24;44.98;100874.89;1602861;88;21235;-57
2022/07/30 13:05:04;;;;;;;4.50;1.60;;;;;;;28.17;44.88;100869.53;1589815;89;21207;-57
2022/07/30 13:08:15;;;;;;;4.30;1.70;;;;;;;28.19;44.72;100872.06;1634381;88;21410;-56
2022/07/30 13:11:45;;;;;;;3.33;1.55;;;;;;;28.21;44.64;100864.19;1626267;87;21278;-55
2022/07/30 13:14:53;;;;;;;3.90;1.10;;;;;;;28.26;44.53;100862.80;1657806;86;21269;-56
2022/07/30 13:18:07;;;;;;;4.37;1.30;;;;;;;28.30;44.40;100853.50;1664369;85;21246;-55
2022/07/30 13:21:14;;;;;;;3.98;1.32;;;;;;;28.32;44.19;100860.26;1628614;88;21805;-55
2022/07/30 13:24:14;;;;;;;3.47;1.30;;;;;;;28.21;43.94;100843.07;1612040;87;21239;-56
2022/07/30 13:27:21;;;;;;;6.30;1.30;;;;;;;28.13;43.80;100844.45;1627002;88;21256;-56
2022/07/30 13:30:31;;;;;;;3.25;1.30;;;;;;;27.94;43.57;100846.69;1634415;86;21224;-55
2022/07/30 13:33:44;;;;;;;4.37;1.10;;;;;;;27.67;43.46;100835.62;1645897;86;21286;-56
2022/07/30 13:36:52;;;;;;;5.87;1.75;;;;;;;27.49;43.37;100831.34;1635682;86;21801;-57
2022/07/30 13:40:06;;;;;;;3.12;1.57;;;;;;;27.42;43.34;100836.92;1635020;88;21224;-58
2022/07/30 13:43:14;;;;;;;;;;;;;;;27.46;43.33;100822.61;1631312;87;21251;-57
2022/07/30 13:46:21;;;;;;;4.50;1.35;;;;;;;27.51;43.32;100818.41;1634955;87;20639;-57
2022/07/30 13:49:29;;;;;;;5.35;1.77;;;;;;;27.56;43.31;100814.18;1633918;87;21236;-58
2022/07/30 13:52:36;;;;;;;2.58;1.40;;;;;;;27.62;43.24;100823.77;1638720;87;21311;-57
2022/07/30 13:55:45;;;;;;;12.88;1.52;;;;;;;27.66;43.10;100816.48;1635174;83;21361;-57
2022/07/30 13:58:53;;;;;;;2.30;1.30;;;;;;;27.70;42.96;100811.97;1679118;85;21244;-57
2022/07/30 14:02:03;;;;;;;4.17;1.30;;;;;;;27.72;42.88;100811.70;1679330;85;21253;-57
2022/07/30 14:05:11;;;;;;;3.80;1.37;;;;;;;27.78;42.77;100812.02;1673436;85;21261;-57
2022/07/30 14:08:17;;;;;;;6.35;1.60;;;;;;;27.83;42.54;100812.00;1686569;83;21302;-56
2022/07/30 14:11:24;;;;;;;3.00;1.30;;;;;;;27.79;42.35;100815.95;1651610;86;21212;-57
2022/07/30 14:14:31;;;;;;;11.63;4.53;;;;;;;27.74;42.37;100822.98;1641926;87;21248;-59
2022/07/30 14:17:40;;;;;;;2.25;1.15;;;;;;;27.74;42.24;100815.94;1640482;87;21265;-56
2022/07/30 14:20:52;;;;;;;2.22;1.07;;;;;;;27.69;42.08;100809.44;1643302;87;21670;-57
2022/07/30 14:24:00;;;;;;;3.95;1.20;;;;;;;27.61;42.01;100817.02;1653372;86;21614;-58
2022/07/30 14:27:07;;;;;;;3.98;1.20;;;;;;;27.58;41.95;100812.80;1639929;87;21248;-56
2022/07/30 14:30:14;;;;;;;4.75;1.20;;;;;;;27.56;41.91;100800.11;1668169;84;21268;-55
2022/07/30 14:33:22;;;;;;;5.65;1.10;;;;;;;27.54;41.89;100794.77;1662573;86;21264;-56
2022/07/30 14:36:29;;;;;;;2.60;1.30;;;;;;;27.53;41.82;100786.05;1679766;85;21228;-56
2022/07/30 14:39:35;;;;;;;2.67;1.30;;;;;;;27.56;41.86;100781.28;1652533;86;21232;-56
2022/07/30 14:42:46;;;;;;;6.67;1.25;;;;;;;27.80;41.66;100783.86;1641455;86;21292;-56
2022/07/30 14:45:58;;;;;;;4.42;1.32;;;;;;;27.85;41.47;100778.25;1658851;83;21224;-57
2022/07/30 14:49:07;;;;;;;3.77;1.32;;;;;;;27.80;41.46;100782.45;1666860;85;21244;-56